createdAt,value
2022-10-01T00:02:07.320Z,67.72
2022-10-01T00:04:37.551Z,67.13
2022-10-01T00:07:09.475Z,68.01
2022-10-01T00:09:36.780Z,67.79
2022-10-01T00:12:03.734Z,68.09
2022-10-01T00:14:30.610Z,68.71
2022-10-01T00:16:57.639Z,68.73
2022-10-01T00:19:24.544Z,68.83
2022-10-01T00:21:51.387Z,69.11
2022-10-01T00:24:18.829Z,68.45
2022-10-01T00:26:45.678Z,68.55
2022-10-01T00:29:14.991Z,68.67
2022-10-01T00:31:43.067Z,68.80
2022-10-01T00:34:13.096Z,68.64
2022-10-01T00:36:40.083Z,68.51
2022-10-01T00:39:07.261Z,68.95
2022-10-01T00:41:35.430Z,68.89
2022-10-01T00:44:28.502Z,68.25
2022-10-01T00:47:02.976Z,69.37
2022-10-01T00:49:35.275Z,68.65
2022-10-01T00:52:10.109Z,69.10
2022-10-01T00:54:57.184Z,69.15
2022-10-01T00:57:27.594Z,69.67
2022-10-01T01:00:00.179Z,69.42
2022-10-01T01:02:27.404Z,69.49
2022-10-01T01:04:54.306Z,68.91
2022-10-01T01:07:22.485Z,68.84
2022-10-01T01:09:54.596Z,69.03
2022-10-01T01:12:47.947Z,69.11
2022-10-01T01:15:33.175Z,69.34
2022-10-01T01:18:17.234Z,69.29
2022-10-01T01:21:35.095Z,69.62
2022-10-01T01:24:30.330Z,69.63
2022-10-01T01:27:44.679Z,69.69
2022-10-01T01:30:15.864Z,70.28
2022-10-01T01:33:03.314Z,70.20
2022-10-01T01:35:52.999Z,70.72
2022-10-01T01:38:28.669Z,70.82
2022-10-01T01:41:02.607Z,70.66
2022-10-01T01:43:36.297Z,71.13
2022-10-01T01:46:08.116Z,71.03
2022-10-01T01:48:38.840Z,70.99
2022-10-01T01:51:16.526Z,71.31
2022-10-01T01:53:43.780Z,71.18
2022-10-01T01:56:11.286Z,70.91
2022-10-01T01:58:39.621Z,71.35
2022-10-01T02:01:06.900Z,71.17
2022-10-01T02:03:35.598Z,70.61
2022-10-01T02:06:42.841Z,70.26
2022-10-01T02:09:37.054Z,70.27
2022-10-01T02:12:31.759Z,70.29
2022-10-01T02:15:37.434Z,70.43
2022-10-01T02:18:30.305Z,70.49
2022-10-01T02:21:12.190Z,70.99
2022-10-01T02:23:58.165Z,70.45
2022-10-01T02:26:29.106Z,70.76
2022-10-01T02:29:03.332Z,70.43
2022-10-01T02:31:32.788Z,70.07
2022-10-01T02:34:02.279Z,70.50
2022-10-01T02:36:33.677Z,70.78
2022-10-01T02:39:03.155Z,70.66
2022-10-01T02:41:36.441Z,71.13
2022-10-01T02:44:15.950Z,70.40
2022-10-01T02:47:07.663Z,70.99
2022-10-01T02:49:37.419Z,70.24
2022-10-01T02:52:16.856Z,70.29
2022-10-01T02:54:57.221Z,70.78
2022-10-01T02:57:27.600Z,70.81
2022-10-01T03:00:01.660Z,70.71
2022-10-01T03:02:31.643Z,71.37
2022-10-01T03:05:00.151Z,70.79
2022-10-01T03:07:30.782Z,71.13
2022-10-01T03:09:58.117Z,71.04
2022-10-01T03:12:25.211Z,70.96
2022-10-01T03:14:53.664Z,71.40
2022-10-01T03:17:20.995Z,71.35
2022-10-01T03:19:48.177Z,71.60
2022-10-01T03:22:22.714Z,71.42
2022-10-01T03:24:51.600Z,71.33
2022-10-01T03:27:20.417Z,71.13
2022-10-01T03:29:47.684Z,71.53
2022-10-01T03:32:15.799Z,71.94
2022-10-01T03:34:42.957Z,71.52
2022-10-01T03:37:10.199Z,71.76
2022-10-01T03:39:37.287Z,71.88
2022-10-01T03:42:06.029Z,72.11
2022-10-01T03:44:34.024Z,71.75
2022-10-01T03:47:01.125Z,71.57
2022-10-01T03:49:28.021Z,71.89
2022-10-01T03:51:55.530Z,71.44
2022-10-01T03:54:22.803Z,71.37
2022-10-01T03:56:49.762Z,72.21
2022-10-01T03:59:16.712Z,72.41
2022-10-01T04:01:43.862Z,72.54
2022-10-01T04:04:10.672Z,72.87
2022-10-01T04:06:37.578Z,72.20
2022-10-01T04:09:05.222Z,72.23
2022-10-01T04:11:32.492Z,72.02
2022-10-01T04:13:59.688Z,72.40
2022-10-01T04:16:26.922Z,72.47
2022-10-01T04:18:54.632Z,72.20
2022-10-01T04:21:21.472Z,72.38
2022-10-01T04:23:49.869Z,72.60
2022-10-01T04:26:19.253Z,72.46
2022-10-01T04:28:46.884Z,72.74
2022-10-01T04:31:27.088Z,72.03
2022-10-01T04:33:57.461Z,71.75
2022-10-01T04:36:25.987Z,72.33
2022-10-01T04:39:01.099Z,71.90
2022-10-01T04:41:32.028Z,72.11
2022-10-01T04:44:00.412Z,72.21
2022-10-01T04:46:30.397Z,72.44
2022-10-01T04:48:58.175Z,72.08
2022-10-01T04:51:25.080Z,72.13
2022-10-01T04:53:51.902Z,72.08
2022-10-01T04:56:18.851Z,72.38
2022-10-01T04:58:46.827Z,72.49
2022-10-01T05:01:13.660Z,72.52
2022-10-01T05:03:41.335Z,71.81
2022-10-01T05:06:08.103Z,72.58
2022-10-01T05:08:34.905Z,72.45
2022-10-01T05:11:03.151Z,72.48
2022-10-01T05:13:31.936Z,72.04
2022-10-01T05:15:59.068Z,72.62
2022-10-01T05:18:27.664Z,72.52
2022-10-01T05:20:54.515Z,72.62
2022-10-01T05:23:21.383Z,72.47
2022-10-01T05:25:48.415Z,72.10
2022-10-01T05:28:21.379Z,72.37
2022-10-01T05:30:51.148Z,72.15
2022-10-01T05:33:18.322Z,71.79
2022-10-01T05:35:45.317Z,71.72
2022-10-01T05:38:12.359Z,71.68
2022-10-01T05:40:39.551Z,71.98
2022-10-01T05:43:06.358Z,71.82
2022-10-01T05:45:33.979Z,71.96
2022-10-01T05:48:04.608Z,71.72
2022-10-01T05:50:35.944Z,71.19
2022-10-01T05:53:02.994Z,71.40
2022-10-01T05:55:34.559Z,71.47
2022-10-01T05:58:11.424Z,71.38
2022-10-01T06:00:41.113Z,71.85
2022-10-01T06:03:12.664Z,71.45
2022-10-01T06:05:40.018Z,71.17
2022-10-01T06:08:09.890Z,71.31
2022-10-01T06:10:37.024Z,71.31
2022-10-01T06:13:08.258Z,71.06
2022-10-01T06:15:38.799Z,71.12
2022-10-01T06:18:08.966Z,71.27
2022-10-01T06:20:36.621Z,71.21
2022-10-01T06:23:07.444Z,71.24
2022-10-01T06:25:36.468Z,70.99
2022-10-01T06:28:06.003Z,70.94
2022-10-01T06:30:36.313Z,70.65
2022-10-01T06:33:08.481Z,71.07
2022-10-01T06:35:40.959Z,70.74
2022-10-01T06:38:09.525Z,70.43
2022-10-01T06:40:37.663Z,70.84
2022-10-01T06:43:07.936Z,70.70
2022-10-01T06:45:42.562Z,70.69
2022-10-01T06:48:14.790Z,70.86
2022-10-01T06:50:44.863Z,70.58
2022-10-01T06:53:14.182Z,70.51
2022-10-01T06:55:41.991Z,70.34
2022-10-01T06:58:21.789Z,70.84
2022-10-01T07:00:49.930Z,71.07
2022-10-01T07:03:22.443Z,70.44
2022-10-01T07:05:50.645Z,70.25
2022-10-01T07:08:18.282Z,70.58
2022-10-01T07:10:45.782Z,70.16
2022-10-01T07:13:17.087Z,70.04
2022-10-01T07:15:45.272Z,70.00
2022-10-01T07:18:13.402Z,70.04
2022-10-01T07:20:41.389Z,69.94
2022-10-01T07:23:13.430Z,69.88
2022-10-01T07:25:42.308Z,69.37
2022-10-01T07:28:18.311Z,69.55
2022-10-01T07:31:11.245Z,69.32
2022-10-01T07:33:39.850Z,69.35
2022-10-01T07:36:10.778Z,69.15
2022-10-01T07:38:37.619Z,69.13
2022-10-01T07:41:04.876Z,68.55
2022-10-01T07:43:34.634Z,68.46
2022-10-01T07:46:02.058Z,68.21
2022-10-01T07:48:29.075Z,68.01
2022-10-01T07:50:57.888Z,67.60
2022-10-01T07:53:25.622Z,67.51
2022-10-01T07:55:52.622Z,67.12
2022-10-01T07:58:23.827Z,67.05
2022-10-01T08:00:58.745Z,66.76
2022-10-01T08:03:26.136Z,66.74
2022-10-01T08:05:53.784Z,66.43
2022-10-01T08:08:20.975Z,66.45
2022-10-01T08:10:50.907Z,66.15
2022-10-01T08:13:18.505Z,66.05
2022-10-01T08:15:53.558Z,65.88
2022-10-01T08:18:23.039Z,65.52
2022-10-01T08:20:50.412Z,65.05
2022-10-01T08:23:17.603Z,64.98
2022-10-01T08:25:45.955Z,65.09
2022-10-01T08:28:13.143Z,64.48
2022-10-01T08:30:42.687Z,64.03
2022-10-01T08:33:14.312Z,64.11
2022-10-01T08:35:43.675Z,63.73
2022-10-01T08:38:12.590Z,63.59
2022-10-01T08:40:51.155Z,63.13
2022-10-01T08:43:38.458Z,62.66
2022-10-01T08:46:18.846Z,62.84
2022-10-01T08:49:13.121Z,62.08
2022-10-01T08:52:12.385Z,61.44
2022-10-01T08:54:51.986Z,60.98
2022-10-01T08:57:25.558Z,60.67
2022-10-01T08:59:58.915Z,60.20
2022-10-01T09:02:47.827Z,60.50
2022-10-01T09:05:24.825Z,59.26
2022-10-01T09:08:16.532Z,59.27
2022-10-01T09:10:48.431Z,59.37
2022-10-01T09:13:39.403Z,59.70
2022-10-01T09:16:18.583Z,59.23
2022-10-01T09:19:04.030Z,59.29
2022-10-01T09:21:57.159Z,59.27
2022-10-01T09:25:19.296Z,59.07
2022-10-01T09:27:47.189Z,59.08
2022-10-01T09:30:23.444Z,59.16
2022-10-01T09:33:14.474Z,59.87
2022-10-01T09:35:45.162Z,59.12
2022-10-01T09:38:42.045Z,59.15
2022-10-01T09:41:11.704Z,58.98
2022-10-01T09:43:42.499Z,59.13
2022-10-01T09:46:15.504Z,58.59
2022-10-01T09:48:57.906Z,58.81
2022-10-01T09:51:48.426Z,58.50
2022-10-01T09:55:00.999Z,58.93
2022-10-01T09:57:44.140Z,59.09
2022-10-01T10:00:20.691Z,58.99
2022-10-01T10:02:51.250Z,59.19
2022-10-01T10:05:29.080Z,58.84
2022-10-01T10:08:11.154Z,58.73
2022-10-01T10:10:40.668Z,58.65
2022-10-01T10:13:13.886Z,58.91
2022-10-01T10:15:56.521Z,58.64
2022-10-01T10:18:36.371Z,58.27
2022-10-01T10:21:17.058Z,56.98
2022-10-01T10:23:57.517Z,56.73
2022-10-01T10:26:36.184Z,56.56
2022-10-01T10:29:06.041Z,55.83
2022-10-01T10:31:46.331Z,55.34
2022-10-01T10:34:13.651Z,55.72
2022-10-01T10:36:42.651Z,56.00
2022-10-01T10:39:29.482Z,55.55
2022-10-01T10:42:00.147Z,55.33
2022-10-01T10:44:35.170Z,54.81
2022-10-01T10:47:13.605Z,55.14
2022-10-01T10:50:00.264Z,55.54
2022-10-01T10:52:37.288Z,55.11
2022-10-01T10:55:32.063Z,55.73
2022-10-01T10:58:15.356Z,55.63
2022-10-01T11:00:52.647Z,56.37
2022-10-01T11:03:28.458Z,55.95
2022-10-01T11:06:11.495Z,53.67
2022-10-01T11:08:39.920Z,52.14
2022-10-01T11:11:37.297Z,51.46
2022-10-01T11:15:09.428Z,50.38
2022-10-01T11:18:27.533Z,48.73
2022-10-01T11:21:22.356Z,49.09
2022-10-01T11:24:24.261Z,49.02
2022-10-01T11:27:06.480Z,48.55
2022-10-01T11:29:45.569Z,49.35
2022-10-01T11:32:33.876Z,49.33
2022-10-01T11:35:13.042Z,49.59
2022-10-01T11:38:13.349Z,49.92
2022-10-01T11:40:51.198Z,49.62
2022-10-01T11:43:29.605Z,49.36
2022-10-01T11:46:08.867Z,49.92
2022-10-01T11:48:47.709Z,50.00
2022-10-01T11:51:33.212Z,50.70
2022-10-01T11:54:10.472Z,50.72
2022-10-01T11:57:04.698Z,51.27
2022-10-01T11:59:51.355Z,51.38
2022-10-01T12:02:38.888Z,52.49
2022-10-01T12:05:35.679Z,52.36
2022-10-01T12:08:26.282Z,53.31
2022-10-01T12:11:16.306Z,54.32
2022-10-01T12:13:56.729Z,54.58
2022-10-01T12:16:33.850Z,55.34
2022-10-01T12:19:17.558Z,54.61
2022-10-01T12:21:56.535Z,54.59
2022-10-01T12:24:50.440Z,54.37
2022-10-01T12:27:51.472Z,55.09
2022-10-01T12:30:23.014Z,56.22
2022-10-01T12:33:25.316Z,56.70
2022-10-01T12:36:06.695Z,58.18
2022-10-01T12:38:52.082Z,58.52
2022-10-01T12:41:42.762Z,58.73
2022-10-01T12:44:40.232Z,59.97
2022-10-01T12:47:49.947Z,61.37
2022-10-01T12:50:54.193Z,60.87
2022-10-01T12:53:38.917Z,61.11
2022-10-01T12:56:36.405Z,61.31
2022-10-01T12:59:20.217Z,61.33
2022-10-01T13:02:16.364Z,61.81
2022-10-01T13:05:13.827Z,62.68
2022-10-01T13:08:19.568Z,62.56
2022-10-01T13:11:14.298Z,62.41
2022-10-01T13:13:43.558Z,63.95
2022-10-01T13:16:37.818Z,63.93
2022-10-01T13:19:27.151Z,64.74
2022-10-01T13:22:22.171Z,64.69
2022-10-01T13:25:09.478Z,65.63
2022-10-01T13:27:44.779Z,65.72
2022-10-01T13:30:27.923Z,66.36
2022-10-01T13:33:05.352Z,66.81
2022-10-01T13:35:39.530Z,66.96
2022-10-01T13:38:29.177Z,66.85
2022-10-01T13:41:19.278Z,67.80
2022-10-01T13:44:09.288Z,67.92
2022-10-01T13:46:51.757Z,68.27
2022-10-01T13:49:27.591Z,68.64
2022-10-01T13:51:56.107Z,70.03
2022-10-01T13:54:45.591Z,69.83
2022-10-01T13:57:34.974Z,69.33
2022-10-01T14:00:16.803Z,70.46
2022-10-01T14:03:02.262Z,70.22
2022-10-01T14:05:42.857Z,70.81
2022-10-01T14:08:54.482Z,71.66
2022-10-01T14:11:48.052Z,71.39
2022-10-01T14:14:48.185Z,71.10
2022-10-01T14:17:20.005Z,71.98
2022-10-01T14:19:50.800Z,71.43
2022-10-01T14:22:20.387Z,71.43
2022-10-01T14:25:08.569Z,73.01
2022-10-01T14:27:48.386Z,72.55
2022-10-01T14:30:28.056Z,72.06
2022-10-01T14:33:42.693Z,72.48
2022-10-01T14:36:19.911Z,72.42
2022-10-01T14:38:46.915Z,72.88
2022-10-01T14:41:24.458Z,72.12
2022-10-01T14:43:51.576Z,72.21
2022-10-01T14:46:19.298Z,72.17
2022-10-01T14:48:59.421Z,72.58
2022-10-01T14:51:32.533Z,73.44
2022-10-01T14:54:01.250Z,73.38
2022-10-01T14:56:29.442Z,73.26
2022-10-01T14:59:05.579Z,72.66
2022-10-01T15:01:32.781Z,73.71
2022-10-01T15:03:59.738Z,72.62
2022-10-01T15:06:29.953Z,72.93
2022-10-01T15:09:14.985Z,72.91
2022-10-01T15:11:45.080Z,73.49
2022-10-01T15:14:21.272Z,72.85
2022-10-01T15:16:49.711Z,72.97
2022-10-01T15:19:23.010Z,72.35
2022-10-01T15:21:57.881Z,72.92
2022-10-01T15:24:39.707Z,72.62
2022-10-01T15:27:10.691Z,72.69
2022-10-01T15:29:41.250Z,72.83
2022-10-01T15:32:09.951Z,72.97
2022-10-01T15:34:39.333Z,72.77
2022-10-01T15:37:21.209Z,72.82
2022-10-01T15:39:53.880Z,72.98
2022-10-01T15:42:28.139Z,72.49
2022-10-01T15:45:07.207Z,72.59
2022-10-01T15:47:40.462Z,71.99
2022-10-01T15:50:10.141Z,71.87
2022-10-01T15:53:03.521Z,71.98
2022-10-01T15:55:34.661Z,71.90
2022-10-01T15:58:07.164Z,71.81
2022-10-01T16:01:01.905Z,71.97
2022-10-01T16:03:34.810Z,71.95
2022-10-01T16:06:05.719Z,72.38
2022-10-01T16:09:00.201Z,71.72
2022-10-01T16:11:32.136Z,71.87
2022-10-01T16:14:28.244Z,71.81
2022-10-01T16:17:27.068Z,71.77
2022-10-01T16:20:22.169Z,71.58
2022-10-01T16:22:49.602Z,71.77
2022-10-01T16:25:22.847Z,71.54
2022-10-01T16:28:01.157Z,71.56
2022-10-01T16:30:30.307Z,71.20
2022-10-01T16:33:02.487Z,71.44
2022-10-01T16:35:33.133Z,71.43
2022-10-01T16:38:00.111Z,71.16
2022-10-01T16:40:38.646Z,71.68
2022-10-01T16:43:07.776Z,70.94
2022-10-01T16:45:40.366Z,71.44
2022-10-01T16:48:20.242Z,71.19
2022-10-01T16:50:47.418Z,71.63
2022-10-01T16:53:18.760Z,71.43
2022-10-01T16:55:51.369Z,71.78
2022-10-01T16:58:20.246Z,71.33
2022-10-01T17:00:47.325Z,71.29
2022-10-01T17:03:21.469Z,70.86
2022-10-01T17:05:48.921Z,71.77
2022-10-01T17:08:16.408Z,71.34
2022-10-01T17:10:58.534Z,71.72
2022-10-01T17:13:30.307Z,71.26
2022-10-01T17:15:57.335Z,71.05
2022-10-01T17:18:24.838Z,71.12
2022-10-01T17:20:51.915Z,71.74
2022-10-01T17:23:22.292Z,71.73
2022-10-01T17:25:49.593Z,71.48
2022-10-01T17:28:20.300Z,71.31
2022-10-01T17:30:49.193Z,71.20
2022-10-01T17:33:19.431Z,71.20
2022-10-01T17:35:52.070Z,71.39
2022-10-01T17:38:19.910Z,71.57
2022-10-01T17:40:51.773Z,71.49
2022-10-01T17:43:22.008Z,71.08
2022-10-01T17:46:00.830Z,71.05
2022-10-01T17:48:32.826Z,71.41
2022-10-01T17:51:13.574Z,70.94
2022-10-01T17:53:42.749Z,71.19
2022-10-01T17:56:16.396Z,71.92
2022-10-01T17:58:46.009Z,71.19
2022-10-01T18:01:21.251Z,71.18
2022-10-01T18:04:00.342Z,71.12
2022-10-01T18:06:29.650Z,71.36
2022-10-01T18:08:57.174Z,71.40
2022-10-01T18:11:28.064Z,71.06
2022-10-01T18:13:55.826Z,71.26
2022-10-01T18:16:23.935Z,71.51
2022-10-01T18:21:51.224Z,70.99
2022-10-01T18:24:18.555Z,71.15
2022-10-01T18:26:47.723Z,71.02
2022-10-01T18:29:25.115Z,71.29
2022-10-01T18:32:27.318Z,71.60
2022-10-01T18:35:01.382Z,71.43
2022-10-01T18:37:41.305Z,71.21
2022-10-01T18:40:20.579Z,71.27
2022-10-01T18:43:11.341Z,71.11
2022-10-01T18:46:18.767Z,71.35
2022-10-01T18:49:26.184Z,70.58
2022-10-01T18:52:18.793Z,71.07
2022-10-01T18:54:58.309Z,70.71
2022-10-01T18:57:50.162Z,71.15
2022-10-01T19:00:27.051Z,71.13
2022-10-01T19:03:21.160Z,71.13
2022-10-01T19:06:14.996Z,71.07
2022-10-01T19:08:58.382Z,70.75
2022-10-01T19:12:03.437Z,71.05
2022-10-01T19:14:43.561Z,70.86
2022-10-01T19:17:25.658Z,71.25
2022-10-01T19:20:34.764Z,71.19
2022-10-01T19:23:25.172Z,70.91
2022-10-01T19:26:24.762Z,71.06
2022-10-01T19:29:10.138Z,71.08
2022-10-01T19:32:02.440Z,70.98
2022-10-01T19:34:52.470Z,70.68
2022-10-01T19:37:34.466Z,71.10
2022-10-01T19:40:18.864Z,71.16
2022-10-01T19:43:00.832Z,71.26
2022-10-01T19:46:22.877Z,71.29
2022-10-01T19:49:04.132Z,71.27
2022-10-01T19:51:39.429Z,71.45
2022-10-01T19:54:17.034Z,71.07
2022-10-01T19:56:54.399Z,71.13
2022-10-01T19:59:22.766Z,71.45
2022-10-01T20:02:02.637Z,71.10
2022-10-01T20:04:47.361Z,71.28
2022-10-01T20:07:37.474Z,71.25
2022-10-01T20:10:37.661Z,71.08
2022-10-01T20:13:50.085Z,71.61
2022-10-01T20:16:30.917Z,71.34
2022-10-01T20:19:26.702Z,71.30
2022-10-01T20:22:15.871Z,71.43
2022-10-01T20:25:18.154Z,71.44
2022-10-01T20:28:25.837Z,71.66
2022-10-01T20:31:31.060Z,72.12
2022-10-01T20:34:35.994Z,71.95
2022-10-01T20:37:39.918Z,72.31
2022-10-01T20:40:25.330Z,72.04
2022-10-01T20:43:05.989Z,71.89
2022-10-01T20:45:35.599Z,71.86
2022-10-01T20:48:29.731Z,71.68
2022-10-01T20:51:08.261Z,71.78
2022-10-01T20:54:02.923Z,71.86
2022-10-01T20:56:47.433Z,72.33
2022-10-01T20:59:27.596Z,72.04
2022-10-01T21:02:31.672Z,72.19
2022-10-01T21:05:22.233Z,72.20
2022-10-01T21:07:59.419Z,72.11
2022-10-01T21:10:51.204Z,72.42
2022-10-01T21:13:30.221Z,72.45
2022-10-01T21:16:38.140Z,71.79
2022-10-01T21:19:17.406Z,71.72
2022-10-01T21:22:15.920Z,72.16
2022-10-01T21:25:26.648Z,72.33
2022-10-01T21:28:40.040Z,71.86
2022-10-01T21:31:50.341Z,72.16
2022-10-01T21:34:28.543Z,72.04
2022-10-01T21:36:55.521Z,71.59
2022-10-01T21:39:36.677Z,71.71
2022-10-01T21:42:35.988Z,72.40
2022-10-01T21:45:57.317Z,71.98
2022-10-01T21:49:10.210Z,72.08
2022-10-01T21:52:18.916Z,71.62
2022-10-01T21:55:37.353Z,71.70
2022-10-01T21:58:30.559Z,71.82
2022-10-01T22:01:49.039Z,71.98
2022-10-01T22:04:46.313Z,71.32
2022-10-01T22:07:28.143Z,71.59
2022-10-01T22:10:39.618Z,71.26
2022-10-01T22:13:21.718Z,71.21
2022-10-01T22:15:54.339Z,71.54
2022-10-01T22:18:46.251Z,71.01
2022-10-01T22:21:32.703Z,70.80
2022-10-01T22:24:09.945Z,70.64
2022-10-01T22:26:45.028Z,71.10
2022-10-01T22:29:21.236Z,70.70
2022-10-01T22:31:54.213Z,70.97
2022-10-01T22:34:34.070Z,70.70
2022-10-01T22:37:12.855Z,70.35
2022-10-01T22:39:57.176Z,70.62
2022-10-01T22:42:35.471Z,70.00
2022-10-01T22:45:15.563Z,70.08
2022-10-01T22:48:04.879Z,70.16
2022-10-01T22:51:05.031Z,70.33
2022-10-01T22:53:59.369Z,70.32
2022-10-01T22:56:41.836Z,70.06
2022-10-01T22:59:37.848Z,69.59
2022-10-01T23:02:35.969Z,69.67
2022-10-01T23:05:19.223Z,70.16
2022-10-01T23:08:12.022Z,69.64
2022-10-01T23:10:53.901Z,69.41
2022-10-01T23:13:36.907Z,69.29
2022-10-01T23:16:18.684Z,69.46
2022-10-01T23:18:58.706Z,68.90
2022-10-01T23:21:50.994Z,68.80
2022-10-01T23:25:04.629Z,69.33
2022-10-01T23:27:56.699Z,69.18
2022-10-01T23:30:23.819Z,69.12
2022-10-01T23:33:02.316Z,69.11
2022-10-01T23:36:07.267Z,69.13
2022-10-01T23:39:08.028Z,68.91
2022-10-01T23:41:49.327Z,69.13
2022-10-01T23:44:36.431Z,68.90
2022-10-01T23:47:16.293Z,69.03
2022-10-01T23:49:53.121Z,69.28
2022-10-01T23:52:45.331Z,69.25
2022-10-01T23:55:43.810Z,69.51
2022-10-01T23:58:15.875Z,69.60
